sensor_id;sensor_type;location;lat;lon;timestamp;P1;durP1;ratioP1;P2;durP2;ratioP2
74908;SDS011;63468;52.058;4.824;2023-03-11T00:00:57;12.18;;;11.07;;
74908;SDS011;63468;52.058;4.824;2023-03-11T00:03:22;12.80;;;11.70;;
74908;SDS011;63468;52.058;4.824;2023-03-11T00:05:48;13.00;;;11.52;;
74908;SDS011;63468;52.058;4.824;2023-03-11T00:08:15;12.80;;;11.43;;
74908;SDS011;63468;52.058;4.824;2023-03-11T00:10:42;12.68;;;11.63;;
74908;SDS011;63468;52.058;4.824;2023-03-11T00:13:09;12.75;;;11.70;;
74908;SDS011;63468;52.058;4.824;2023-03-11T00:15:36;13.02;;;11.60;;
74908;SDS011;63468;52.058;4.824;2023-03-11T00:18:02;12.35;;;11.38;;
74908;SDS011;63468;52.058;4.824;2023-03-11T00:20:32;12.75;;;11.60;;
74908;SDS011;63468;52.058;4.824;2023-03-11T00:22:58;13.67;;;12.23;;
74908;SDS011;63468;52.058;4.824;2023-03-11T00:25:25;12.88;;;11.43;;
74908;SDS011;63468;52.058;4.824;2023-03-11T00:27:53;13.48;;;12.32;;
74908;SDS011;63468;52.058;4.824;2023-03-11T00:30:18;13.00;;;12.00;;
74908;SDS011;63468;52.058;4.824;2023-03-11T00:32:45;13.63;;;12.57;;
74908;SDS011;63468;52.058;4.824;2023-03-11T00:35:13;13.52;;;12.52;;
74908;SDS011;63468;52.058;4.824;2023-03-11T00:37:41;14.65;;;13.18;;
74908;SDS011;63468;52.058;4.824;2023-03-11T00:40:15;13.75;;;12.77;;
74908;SDS011;63468;52.058;4.824;2023-03-11T00:42:42;15.35;;;12.80;;
74908;SDS011;63468;52.058;4.824;2023-03-11T00:45:07;14.27;;;13.18;;
74908;SDS011;63468;52.058;4.824;2023-03-11T00:47:33;15.10;;;13.73;;
74908;SDS011;63468;52.058;4.824;2023-03-11T00:49:58;14.68;;;13.48;;
74908;SDS011;63468;52.058;4.824;2023-03-11T00:52:24;14.60;;;13.18;;
74908;SDS011;63468;52.058;4.824;2023-03-11T00:54:49;14.93;;;13.82;;
74908;SDS011;63468;52.058;4.824;2023-03-11T00:57:14;14.27;;;13.07;;
74908;SDS011;63468;52.058;4.824;2023-03-11T00:59:40;14.88;;;13.57;;
74908;SDS011;63468;52.058;4.824;2023-03-11T01:02:05;15.60;;;14.10;;
74908;SDS011;63468;52.058;4.824;2023-03-11T01:04:30;18.65;;;15.13;;
74908;SDS011;63468;52.058;4.824;2023-03-11T01:06:55;14.68;;;13.65;;
74908;SDS011;63468;52.058;4.824;2023-03-11T01:09:21;14.13;;;13.13;;
74908;SDS011;63468;52.058;4.824;2023-03-11T01:11:46;15.00;;;13.55;;
74908;SDS011;63468;52.058;4.824;2023-03-11T01:14:11;15.77;;;14.15;;
74908;SDS011;63468;52.058;4.824;2023-03-11T01:16:37;14.25;;;12.95;;
74908;SDS011;63468;52.058;4.824;2023-03-11T01:19:02;14.55;;;13.35;;
74908;SDS011;63468;52.058;4.824;2023-03-11T01:21:27;14.93;;;13.82;;
74908;SDS011;63468;52.058;4.824;2023-03-11T01:23:53;15.20;;;13.90;;
74908;SDS011;63468;52.058;4.824;2023-03-11T01:26:18;15.63;;;14.15;;
74908;SDS011;63468;52.058;4.824;2023-03-11T01:28:43;16.33;;;14.82;;
74908;SDS011;63468;52.058;4.824;2023-03-11T01:31:10;15.30;;;14.13;;
74908;SDS011;63468;52.058;4.824;2023-03-11T01:33:36;15.75;;;14.55;;
74908;SDS011;63468;52.058;4.824;2023-03-11T01:36:02;15.73;;;14.52;;
74908;SDS011;63468;52.058;4.824;2023-03-11T01:38:27;17.42;;;14.13;;
74908;SDS011;63468;52.058;4.824;2023-03-11T01:40:53;19.13;;;14.63;;
74908;SDS011;63468;52.058;4.824;2023-03-11T01:43:38;15.45;;;14.40;;
74908;SDS011;63468;52.058;4.824;2023-03-11T01:48:48;17.10;;;15.63;;
74908;SDS011;63468;52.058;4.824;2023-03-11T01:51:19;16.48;;;15.10;;
74908;SDS011;63468;52.058;4.824;2023-03-11T01:53:52;17.33;;;15.23;;
74908;SDS011;63468;52.058;4.824;2023-03-11T01:56:18;15.85;;;14.65;;
74908;SDS011;63468;52.058;4.824;2023-03-11T01:58:44;15.50;;;14.30;;
74908;SDS011;63468;52.058;4.824;2023-03-11T02:01:10;15.93;;;14.68;;
74908;SDS011;63468;52.058;4.824;2023-03-11T02:03:38;15.88;;;14.23;;
74908;SDS011;63468;52.058;4.824;2023-03-11T02:06:11;16.50;;;15.30;;
74908;SDS011;63468;52.058;4.824;2023-03-11T02:08:39;16.25;;;14.52;;
74908;SDS011;63468;52.058;4.824;2023-03-11T02:11:07;16.52;;;14.90;;
74908;SDS011;63468;52.058;4.824;2023-03-11T02:13:34;15.50;;;14.10;;
74908;SDS011;63468;52.058;4.824;2023-03-11T02:16:00;14.95;;;13.82;;
74908;SDS011;63468;52.058;4.824;2023-03-11T02:18:26;16.95;;;15.38;;
74908;SDS011;63468;52.058;4.824;2023-03-11T02:23:43;19.00;;;14.93;;
74908;SDS011;63468;52.058;4.824;2023-03-11T02:26:23;15.93;;;14.63;;
74908;SDS011;63468;52.058;4.824;2023-03-11T02:28:54;15.32;;;14.13;;
74908;SDS011;63468;52.058;4.824;2023-03-11T02:31:21;15.52;;;14.32;;
74908;SDS011;63468;52.058;4.824;2023-03-11T02:33:48;14.88;;;13.52;;
74908;SDS011;63468;52.058;4.824;2023-03-11T02:38:59;15.73;;;14.52;;
74908;SDS011;63468;52.058;4.824;2023-03-11T02:41:25;15.65;;;14.32;;
74908;SDS011;63468;52.058;4.824;2023-03-11T02:43:51;15.75;;;14.45;;
74908;SDS011;63468;52.058;4.824;2023-03-11T02:46:17;15.23;;;14.07;;
74908;SDS011;63468;52.058;4.824;2023-03-11T02:48:43;15.35;;;14.13;;
74908;SDS011;63468;52.058;4.824;2023-03-11T02:51:08;16.13;;;14.68;;
74908;SDS011;63468;52.058;4.824;2023-03-11T02:53:35;16.45;;;14.40;;
74908;SDS011;63468;52.058;4.824;2023-03-11T02:56:03;16.25;;;14.75;;
74908;SDS011;63468;52.058;4.824;2023-03-11T02:58:28;15.27;;;14.18;;
74908;SDS011;63468;52.058;4.824;2023-03-11T03:00:54;15.68;;;14.07;;
74908;SDS011;63468;52.058;4.824;2023-03-11T03:03:19;15.57;;;14.25;;
74908;SDS011;63468;52.058;4.824;2023-03-11T03:05:44;15.20;;;14.20;;
74908;SDS011;63468;52.058;4.824;2023-03-11T03:08:10;16.08;;;14.63;;
74908;SDS011;63468;52.058;4.824;2023-03-11T03:10:35;15.65;;;14.45;;
74908;SDS011;63468;52.058;4.824;2023-03-11T03:13:01;17.27;;;15.52;;
74908;SDS011;63468;52.058;4.824;2023-03-11T03:15:26;16.13;;;14.55;;
74908;SDS011;63468;52.058;4.824;2023-03-11T03:17:51;15.70;;;14.40;;
74908;SDS011;63468;52.058;4.824;2023-03-11T03:20:17;15.23;;;13.98;;
74908;SDS011;63468;52.058;4.824;2023-03-11T03:22:42;15.50;;;14.30;;
74908;SDS011;63468;52.058;4.824;2023-03-11T03:25:08;16.08;;;14.82;;
74908;SDS011;63468;52.058;4.824;2023-03-11T03:27:34;16.13;;;14.65;;
74908;SDS011;63468;52.058;4.824;2023-03-11T03:30:00;15.40;;;14.10;;
74908;SDS011;63468;52.058;4.824;2023-03-11T03:32:25;16.25;;;14.80;;
74908;SDS011;63468;52.058;4.824;2023-03-11T03:34:50;15.25;;;14.05;;
74908;SDS011;63468;52.058;4.824;2023-03-11T03:37:22;16.00;;;14.55;;
74908;SDS011;63468;52.058;4.824;2023-03-11T03:39:47;15.75;;;14.50;;
74908;SDS011;63468;52.058;4.824;2023-03-11T03:42:12;16.15;;;14.73;;
74908;SDS011;63468;52.058;4.824;2023-03-11T03:44:38;15.68;;;14.65;;
74908;SDS011;63468;52.058;4.824;2023-03-11T03:47:03;16.25;;;15.00;;
74908;SDS011;63468;52.058;4.824;2023-03-11T03:49:28;15.75;;;14.43;;
74908;SDS011;63468;52.058;4.824;2023-03-11T03:51:54;15.45;;;14.45;;
74908;SDS011;63468;52.058;4.824;2023-03-11T03:54:19;15.73;;;14.52;;
74908;SDS011;63468;52.058;4.824;2023-03-11T03:56:44;16.17;;;15.07;;
74908;SDS011;63468;52.058;4.824;2023-03-11T03:59:10;16.05;;;14.30;;
74908;SDS011;63468;52.058;4.824;2023-03-11T04:01:35;16.13;;;14.73;;
74908;SDS011;63468;52.058;4.824;2023-03-11T04:04:00;16.60;;;15.15;;
74908;SDS011;63468;52.058;4.824;2023-03-11T04:06:26;16.85;;;14.60;;
74908;SDS011;63468;52.058;4.824;2023-03-11T04:08:52;15.20;;;14.20;;
74908;SDS011;63468;52.058;4.824;2023-03-11T04:11:18;15.18;;;13.95;;
74908;SDS011;63468;52.058;4.824;2023-03-11T04:13:43;15.90;;;14.80;;
74908;SDS011;63468;52.058;4.824;2023-03-11T04:16:09;15.57;;;14.35;;
74908;SDS011;63468;52.058;4.824;2023-03-11T04:18:39;15.55;;;14.35;;
74908;SDS011;63468;52.058;4.824;2023-03-11T04:21:05;16.30;;;14.70;;
74908;SDS011;63468;52.058;4.824;2023-03-11T04:23:30;16.25;;;14.70;;
74908;SDS011;63468;52.058;4.824;2023-03-11T04:25:56;16.20;;;14.90;;
74908;SDS011;63468;52.058;4.824;2023-03-11T04:28:21;17.70;;;14.95;;
74908;SDS011;63468;52.058;4.824;2023-03-11T04:30:46;15.68;;;14.57;;
74908;SDS011;63468;52.058;4.824;2023-03-11T04:33:12;15.77;;;14.43;;
74908;SDS011;63468;52.058;4.824;2023-03-11T04:35:37;16.05;;;14.85;;
74908;SDS011;63468;52.058;4.824;2023-03-11T04:38:03;16.33;;;15.23;;
74908;SDS011;63468;52.058;4.824;2023-03-11T04:40:28;16.48;;;15.13;;
74908;SDS011;63468;52.058;4.824;2023-03-11T04:42:54;16.60;;;15.40;;
74908;SDS011;63468;52.058;4.824;2023-03-11T04:45:19;16.30;;;14.90;;
74908;SDS011;63468;52.058;4.824;2023-03-11T04:47:48;16.35;;;14.85;;
74908;SDS011;63468;52.058;4.824;2023-03-11T04:50:14;16.35;;;14.93;;
74908;SDS011;63468;52.058;4.824;2023-03-11T04:52:40;16.13;;;14.70;;
74908;SDS011;63468;52.058;4.824;2023-03-11T04:55:05;24.90;;;15.52;;
74908;SDS011;63468;52.058;4.824;2023-03-11T04:57:31;16.75;;;15.45;;
74908;SDS011;63468;52.058;4.824;2023-03-11T04:59:56;16.02;;;14.90;;
74908;SDS011;63468;52.058;4.824;2023-03-11T05:02:22;16.58;;;15.23;;
74908;SDS011;63468;52.058;4.824;2023-03-11T05:04:47;16.85;;;15.13;;
74908;SDS011;63468;52.058;4.824;2023-03-11T05:07:12;15.40;;;14.20;;
74908;SDS011;63468;52.058;4.824;2023-03-11T05:09:38;16.33;;;15.07;;
74908;SDS011;63468;52.058;4.824;2023-03-11T05:12:03;15.65;;;14.65;;
74908;SDS011;63468;52.058;4.824;2023-03-11T05:14:29;17.08;;;14.98;;
74908;SDS011;63468;52.058;4.824;2023-03-11T05:16:54;16.17;;;14.82;;
74908;SDS011;63468;52.058;4.824;2023-03-11T05:19:20;15.38;;;14.23;;
74908;SDS011;63468;52.058;4.824;2023-03-11T05:22:01;14.90;;;13.70;;
74908;SDS011;63468;52.058;4.824;2023-03-11T05:24:27;16.77;;;14.90;;
74908;SDS011;63468;52.058;4.824;2023-03-11T05:26:53;15.85;;;14.63;;
74908;SDS011;63468;52.058;4.824;2023-03-11T05:29:18;15.57;;;14.48;;
74908;SDS011;63468;52.058;4.824;2023-03-11T05:31:44;15.60;;;14.50;;
74908;SDS011;63468;52.058;4.824;2023-03-11T05:34:09;16.27;;;15.18;;
74908;SDS011;63468;52.058;4.824;2023-03-11T05:36:34;15.07;;;13.93;;
74908;SDS011;63468;52.058;4.824;2023-03-11T05:39:00;14.95;;;13.48;;
74908;SDS011;63468;52.058;4.824;2023-03-11T05:41:25;15.88;;;14.60;;
74908;SDS011;63468;52.058;4.824;2023-03-11T05:43:50;15.55;;;14.45;;
74908;SDS011;63468;52.058;4.824;2023-03-11T05:46:16;15.52;;;14.38;;
74908;SDS011;63468;52.058;4.824;2023-03-11T05:48:41;14.68;;;13.57;;
74908;SDS011;63468;52.058;4.824;2023-03-11T05:51:07;16.65;;;15.45;;
74908;SDS011;63468;52.058;4.824;2023-03-11T05:53:33;16.90;;;15.70;;
74908;SDS011;63468;52.058;4.824;2023-03-11T05:55:59;16.52;;;14.90;;
74908;SDS011;63468;52.058;4.824;2023-03-11T05:58:25;15.75;;;14.30;;
74908;SDS011;63468;52.058;4.824;2023-03-11T06:00:51;15.05;;;13.95;;
74908;SDS011;63468;52.058;4.824;2023-03-11T06:03:17;16.08;;;14.50;;
74908;SDS011;63468;52.058;4.824;2023-03-11T06:05:43;15.18;;;14.07;;
74908;SDS011;63468;52.058;4.824;2023-03-11T06:08:12;15.95;;;14.75;;
74908;SDS011;63468;52.058;4.824;2023-03-11T06:10:37;15.98;;;14.38;;
74908;SDS011;63468;52.058;4.824;2023-03-11T06:13:03;15.70;;;14.13;;
74908;SDS011;63468;52.058;4.824;2023-03-11T06:15:28;14.00;;;12.63;;
74908;SDS011;63468;52.058;4.824;2023-03-11T06:17:53;10.55;;;8.05;;
74908;SDS011;63468;52.058;4.824;2023-03-11T06:20:19;10.10;;;7.10;;
74908;SDS011;63468;52.058;4.824;2023-03-11T06:22:46;14.05;;;7.45;;
74908;SDS011;63468;52.058;4.824;2023-03-11T06:25:12;9.07;;;7.07;;
74908;SDS011;63468;52.058;4.824;2023-03-11T06:27:38;7.75;;;6.93;;
74908;SDS011;63468;52.058;4.824;2023-03-11T06:30:03;7.70;;;6.80;;
74908;SDS011;63468;52.058;4.824;2023-03-11T06:32:28;8.32;;;5.90;;
74908;SDS011;63468;52.058;4.824;2023-03-11T06:34:54;11.13;;;6.80;;
74908;SDS011;63468;52.058;4.824;2023-03-11T06:37:19;8.57;;;6.50;;
74908;SDS011;63468;52.058;4.824;2023-03-11T06:39:45;12.95;;;6.82;;
74908;SDS011;63468;52.058;4.824;2023-03-11T06:42:11;10.13;;;7.03;;
74908;SDS011;63468;52.058;4.824;2023-03-11T06:44:36;7.90;;;6.22;;
74908;SDS011;63468;52.058;4.824;2023-03-11T06:47:02;7.55;;;5.85;;
74908;SDS011;63468;52.058;4.824;2023-03-11T06:49:27;8.95;;;6.07;;
74908;SDS011;63468;52.058;4.824;2023-03-11T06:51:53;7.57;;;6.57;;
74908;SDS011;63468;52.058;4.824;2023-03-11T06:54:18;9.48;;;6.18;;
74908;SDS011;63468;52.058;4.824;2023-03-11T06:56:43;13.05;;;6.90;;
74908;SDS011;63468;52.058;4.824;2023-03-11T06:59:09;8.07;;;6.65;;
74908;SDS011;63468;52.058;4.824;2023-03-11T07:01:34;8.75;;;7.00;;
74908;SDS011;63468;52.058;4.824;2023-03-11T07:04:00;8.55;;;7.03;;
74908;SDS011;63468;52.058;4.824;2023-03-11T07:06:25;11.38;;;7.22;;
74908;SDS011;63468;52.058;4.824;2023-03-11T07:08:51;10.60;;;6.70;;
74908;SDS011;63468;52.058;4.824;2023-03-11T07:11:21;8.15;;;6.72;;
74908;SDS011;63468;52.058;4.824;2023-03-11T07:13:47;9.82;;;7.22;;
74908;SDS011;63468;52.058;4.824;2023-03-11T07:16:14;9.57;;;7.55;;
74908;SDS011;63468;52.058;4.824;2023-03-11T07:18:41;15.85;;;8.10;;
74908;SDS011;63468;52.058;4.824;2023-03-11T07:21:07;11.20;;;7.32;;
74908;SDS011;63468;52.058;4.824;2023-03-11T07:23:33;9.95;;;7.10;;
74908;SDS011;63468;52.058;4.824;2023-03-11T07:25:59;9.55;;;7.80;;
74908;SDS011;63468;52.058;4.824;2023-03-11T07:28:25;8.88;;;7.95;;
74908;SDS011;63468;52.058;4.824;2023-03-11T07:30:51;12.30;;;8.32;;
74908;SDS011;63468;52.058;4.824;2023-03-11T07:33:17;9.50;;;7.90;;
74908;SDS011;63468;52.058;4.824;2023-03-11T07:35:43;9.85;;;7.70;;
74908;SDS011;63468;52.058;4.824;2023-03-11T07:38:08;14.88;;;8.90;;
74908;SDS011;63468;52.058;4.824;2023-03-11T07:40:34;11.18;;;8.50;;
74908;SDS011;63468;52.058;4.824;2023-03-11T07:42:59;10.77;;;9.45;;
74908;SDS011;63468;52.058;4.824;2023-03-11T07:45:25;10.25;;;8.60;;
74908;SDS011;63468;52.058;4.824;2023-03-11T07:47:50;11.23;;;9.75;;
74908;SDS011;63468;52.058;4.824;2023-03-11T07:50:16;12.93;;;11.82;;
74908;SDS011;63468;52.058;4.824;2023-03-11T07:52:41;13.15;;;11.95;;
74908;SDS011;63468;52.058;4.824;2023-03-11T07:55:07;14.25;;;13.13;;
74908;SDS011;63468;52.058;4.824;2023-03-11T07:57:33;17.40;;;15.82;;
74908;SDS011;63468;52.058;4.824;2023-03-11T07:59:59;16.75;;;15.20;;
74908;SDS011;63468;52.058;4.824;2023-03-11T08:02:24;18.33;;;16.67;;
74908;SDS011;63468;52.058;4.824;2023-03-11T08:04:50;17.92;;;16.10;;
74908;SDS011;63468;52.058;4.824;2023-03-11T08:07:15;18.77;;;17.08;;
74908;SDS011;63468;52.058;4.824;2023-03-11T08:09:40;18.50;;;16.92;;
74908;SDS011;63468;52.058;4.824;2023-03-11T08:12:06;21.33;;;19.27;;
74908;SDS011;63468;52.058;4.824;2023-03-11T08:14:31;20.23;;;18.30;;
74908;SDS011;63468;52.058;4.824;2023-03-11T08:16:57;19.90;;;18.25;;
74908;SDS011;63468;52.058;4.824;2023-03-11T08:19:22;18.95;;;17.35;;
74908;SDS011;63468;52.058;4.824;2023-03-11T08:21:47;19.38;;;17.83;;
74908;SDS011;63468;52.058;4.824;2023-03-11T08:24:13;18.88;;;17.38;;
74908;SDS011;63468;52.058;4.824;2023-03-11T08:26:39;18.33;;;16.88;;
74908;SDS011;63468;52.058;4.824;2023-03-11T08:29:04;18.13;;;16.90;;
74908;SDS011;63468;52.058;4.824;2023-03-11T08:31:31;17.92;;;16.40;;
74908;SDS011;63468;52.058;4.824;2023-03-11T08:33:58;17.92;;;16.48;;
74908;SDS011;63468;52.058;4.824;2023-03-11T08:36:26;29.13;;;23.35;;
74908;SDS011;63468;52.058;4.824;2023-03-11T08:38:51;19.20;;;17.50;;
74908;SDS011;63468;52.058;4.824;2023-03-11T08:41:17;17.15;;;15.85;;
74908;SDS011;63468;52.058;4.824;2023-03-11T08:43:43;18.60;;;17.05;;
74908;SDS011;63468;52.058;4.824;2023-03-11T08:46:16;17.92;;;16.48;;
74908;SDS011;63468;52.058;4.824;2023-03-11T08:48:46;18.20;;;16.52;;
74908;SDS011;63468;52.058;4.824;2023-03-11T08:51:12;17.42;;;15.80;;
74908;SDS011;63468;52.058;4.824;2023-03-11T08:53:37;17.80;;;16.50;;
74908;SDS011;63468;52.058;4.824;2023-03-11T08:56:03;16.95;;;15.65;;
74908;SDS011;63468;52.058;4.824;2023-03-11T08:58:29;15.32;;;14.27;;
74908;SDS011;63468;52.058;4.824;2023-03-11T09:00:54;17.77;;;16.27;;
74908;SDS011;63468;52.058;4.824;2023-03-11T09:03:21;16.40;;;15.20;;
74908;SDS011;63468;52.058;4.824;2023-03-11T09:05:46;17.98;;;16.25;;
74908;SDS011;63468;52.058;4.824;2023-03-11T09:08:11;18.05;;;16.33;;
74908;SDS011;63468;52.058;4.824;2023-03-11T09:10:37;18.52;;;16.77;;
74908;SDS011;63468;52.058;4.824;2023-03-11T09:13:02;24.95;;;20.30;;
74908;SDS011;63468;52.058;4.824;2023-03-11T09:15:27;23.67;;;19.05;;
74908;SDS011;63468;52.058;4.824;2023-03-11T09:17:53;23.88;;;19.35;;
74908;SDS011;63468;52.058;4.824;2023-03-11T09:20:18;16.40;;;15.07;;
74908;SDS011;63468;52.058;4.824;2023-03-11T09:22:44;22.98;;;16.98;;
74908;SDS011;63468;52.058;4.824;2023-03-11T09:25:10;18.52;;;16.73;;
74908;SDS011;63468;52.058;4.824;2023-03-11T09:27:37;20.38;;;17.90;;
74908;SDS011;63468;52.058;4.824;2023-03-11T09:30:02;17.45;;;15.55;;
74908;SDS011;63468;52.058;4.824;2023-03-11T09:32:28;18.90;;;16.65;;
74908;SDS011;63468;52.058;4.824;2023-03-11T09:34:53;17.27;;;15.50;;
74908;SDS011;63468;52.058;4.824;2023-03-11T09:37:18;28.50;;;21.40;;
74908;SDS011;63468;52.058;4.824;2023-03-11T09:39:44;20.15;;;18.08;;
74908;SDS011;63468;52.058;4.824;2023-03-11T09:42:19;17.90;;;16.23;;
74908;SDS011;63468;52.058;4.824;2023-03-11T09:58:08;13.25;;;12.05;;
74908;SDS011;63468;52.058;4.824;2023-03-11T10:00:36;17.17;;;15.43;;
74908;SDS011;63468;52.058;4.824;2023-03-11T10:03:02;16.10;;;14.60;;
74908;SDS011;63468;52.058;4.824;2023-03-11T10:05:31;15.05;;;13.75;;
74908;SDS011;63468;52.058;4.824;2023-03-11T10:10:51;14.93;;;13.63;;
74908;SDS011;63468;52.058;4.824;2023-03-11T10:13:26;21.92;;;19.92;;
74908;SDS011;63468;52.058;4.824;2023-03-11T10:15:56;17.67;;;16.23;;
74908;SDS011;63468;52.058;4.824;2023-03-11T10:21:31;13.75;;;12.55;;
74908;SDS011;63468;52.058;4.824;2023-03-11T10:24:18;14.30;;;13.07;;
74908;SDS011;63468;52.058;4.824;2023-03-11T10:26:57;13.80;;;12.60;;
74908;SDS011;63468;52.058;4.824;2023-03-11T10:29:29;14.20;;;12.30;;
74908;SDS011;63468;52.058;4.824;2023-03-11T10:36:03;14.00;;;12.68;;
74908;SDS011;63468;52.058;4.824;2023-03-11T10:37:57;13.70;;;12.40;;
74908;SDS011;63468;52.058;4.824;2023-03-11T10:40:27;13.35;;;11.98;;
74908;SDS011;63468;52.058;4.824;2023-03-11T10:42:57;18.17;;;12.93;;
74908;SDS011;63468;52.058;4.824;2023-03-11T10:45:24;14.80;;;13.43;;
74908;SDS011;63468;52.058;4.824;2023-03-11T10:47:51;14.05;;;12.90;;
74908;SDS011;63468;52.058;4.824;2023-03-11T10:50:17;13.95;;;12.85;;
74908;SDS011;63468;52.058;4.824;2023-03-11T10:55:31;14.00;;;13.00;;
74908;SDS011;63468;52.058;4.824;2023-03-11T10:58:04;16.85;;;14.52;;
74908;SDS011;63468;52.058;4.824;2023-03-11T11:00:36;15.48;;;14.07;;
74908;SDS011;63468;52.058;4.824;2023-03-11T11:03:01;15.80;;;14.27;;
74908;SDS011;63468;52.058;4.824;2023-03-11T11:05:32;15.07;;;13.98;;
74908;SDS011;63468;52.058;4.824;2023-03-11T11:08:02;15.00;;;13.60;;
74908;SDS011;63468;52.058;4.824;2023-03-11T11:10:30;14.98;;;13.82;;
74908;SDS011;63468;52.058;4.824;2023-03-11T11:15:27;15.80;;;14.50;;
74908;SDS011;63468;52.058;4.824;2023-03-11T11:17:59;15.68;;;14.32;;
74908;SDS011;63468;52.058;4.824;2023-03-11T11:20:27;16.83;;;14.65;;
74908;SDS011;63468;52.058;4.824;2023-03-11T11:22:54;16.13;;;14.82;;
74908;SDS011;63468;52.058;4.824;2023-03-11T11:25:25;17.83;;;16.23;;
74908;SDS011;63468;52.058;4.824;2023-03-11T11:27:59;17.92;;;16.13;;
74908;SDS011;63468;52.058;4.824;2023-03-11T11:30:27;16.05;;;14.60;;
74908;SDS011;63468;52.058;4.824;2023-03-11T11:32:53;16.08;;;14.77;;
74908;SDS011;63468;52.058;4.824;2023-03-11T11:35:20;15.95;;;14.50;;
74908;SDS011;63468;52.058;4.824;2023-03-11T11:42:53;17.00;;;15.45;;
74908;SDS011;63468;52.058;4.824;2023-03-11T11:45:28;16.52;;;15.32;;
74908;SDS011;63468;52.058;4.824;2023-03-11T11:47:59;15.85;;;14.30;;
74908;SDS011;63468;52.058;4.824;2023-03-11T11:50:35;16.45;;;15.02;;
74908;SDS011;63468;52.058;4.824;2023-03-11T11:53:08;15.50;;;14.35;;
74908;SDS011;63468;52.058;4.824;2023-03-11T11:55:38;15.43;;;14.13;;
74908;SDS011;63468;52.058;4.824;2023-03-11T11:58:08;15.35;;;14.07;;
74908;SDS011;63468;52.058;4.824;2023-03-11T12:00:49;14.77;;;13.55;;
74908;SDS011;63468;52.058;4.824;2023-03-11T12:11:50;17.00;;;15.50;;
74908;SDS011;63468;52.058;4.824;2023-03-11T12:14:25;16.48;;;15.05;;
74908;SDS011;63468;52.058;4.824;2023-03-11T12:17:00;16.50;;;15.10;;
74908;SDS011;63468;52.058;4.824;2023-03-11T12:19:38;15.98;;;14.68;;
74908;SDS011;63468;52.058;4.824;2023-03-11T12:25:16;16.00;;;14.70;;
74908;SDS011;63468;52.058;4.824;2023-03-11T12:27:52;15.73;;;14.70;;
74908;SDS011;63468;52.058;4.824;2023-03-11T12:30:29;15.98;;;14.65;;
74908;SDS011;63468;52.058;4.824;2023-03-11T12:35:28;15.25;;;14.15;;
74908;SDS011;63468;52.058;4.824;2023-03-11T12:37:56;17.42;;;16.13;;
74908;SDS011;63468;52.058;4.824;2023-03-11T12:43:22;16.45;;;15.20;;
74908;SDS011;63468;52.058;4.824;2023-03-11T12:45:49;17.25;;;15.93;;
74908;SDS011;63468;52.058;4.824;2023-03-11T12:50:53;16.63;;;15.23;;
74908;SDS011;63468;52.058;4.824;2023-03-11T12:53:19;17.05;;;14.88;;
74908;SDS011;63468;52.058;4.824;2023-03-11T13:04:52;16.95;;;15.73;;
74908;SDS011;63468;52.058;4.824;2023-03-11T13:12:42;23.73;;;15.80;;
74908;SDS011;63468;52.058;4.824;2023-03-11T13:17:59;15.40;;;14.23;;
74908;SDS011;63468;52.058;4.824;2023-03-11T13:33:32;15.30;;;13.77;;
74908;SDS011;63468;52.058;4.824;2023-03-11T13:36:08;14.98;;;13.82;;
74908;SDS011;63468;52.058;4.824;2023-03-11T13:41:21;17.75;;;16.08;;
74908;SDS011;63468;52.058;4.824;2023-03-11T13:43:51;13.45;;;12.20;;
74908;SDS011;63468;52.058;4.824;2023-03-11T13:46:27;12.77;;;11.77;;
74908;SDS011;63468;52.058;4.824;2023-03-11T13:49:03;16.90;;;12.90;;
74908;SDS011;63468;52.058;4.824;2023-03-11T13:56:45;16.42;;;11.70;;
74908;SDS011;63468;52.058;4.824;2023-03-11T13:59:17;12.82;;;11.68;;
74908;SDS011;63468;52.058;4.824;2023-03-11T14:01:47;12.10;;;11.10;;
74908;SDS011;63468;52.058;4.824;2023-03-11T14:04:27;12.23;;;11.02;;
74908;SDS011;63468;52.058;4.824;2023-03-11T14:06:57;12.65;;;11.55;;
74908;SDS011;63468;52.058;4.824;2023-03-11T14:09:23;13.35;;;12.15;;
74908;SDS011;63468;52.058;4.824;2023-03-11T14:11:53;13.75;;;12.07;;
74908;SDS011;63468;52.058;4.824;2023-03-11T14:17:20;13.10;;;11.80;;
74908;SDS011;63468;52.058;4.824;2023-03-11T14:20:02;12.02;;;10.90;;
74908;SDS011;63468;52.058;4.824;2023-03-11T14:22:30;12.25;;;11.18;;
74908;SDS011;63468;52.058;4.824;2023-03-11T14:24:57;12.63;;;11.38;;
74908;SDS011;63468;52.058;4.824;2023-03-11T14:27:23;12.60;;;11.30;;
74908;SDS011;63468;52.058;4.824;2023-03-11T14:29:48;12.15;;;11.00;;
74908;SDS011;63468;52.058;4.824;2023-03-11T14:32:35;12.48;;;11.38;;
74908;SDS011;63468;52.058;4.824;2023-03-11T14:34:59;15.60;;;12.73;;
74908;SDS011;63468;52.058;4.824;2023-03-11T14:37:35;12.02;;;10.80;;
74908;SDS011;63468;52.058;4.824;2023-03-11T14:40:02;12.93;;;10.73;;
74908;SDS011;63468;52.058;4.824;2023-03-11T14:50:14;11.48;;;10.68;;
74908;SDS011;63468;52.058;4.824;2023-03-11T14:52:45;12.10;;;11.10;;
74908;SDS011;63468;52.058;4.824;2023-03-11T14:55:16;12.05;;;11.15;;
74908;SDS011;63468;52.058;4.824;2023-03-11T14:57:49;12.27;;;11.18;;
74908;SDS011;63468;52.058;4.824;2023-03-11T15:00:19;11.98;;;10.98;;
74908;SDS011;63468;52.058;4.824;2023-03-11T15:05:36;12.20;;;11.20;;
74908;SDS011;63468;52.058;4.824;2023-03-11T15:08:18;18.98;;;11.48;;
74908;SDS011;63468;52.058;4.824;2023-03-11T15:11:00;12.73;;;11.43;;
74908;SDS011;63468;52.058;4.824;2023-03-11T15:15:55;12.55;;;11.45;;
74908;SDS011;63468;52.058;4.824;2023-03-11T15:18:22;12.60;;;11.43;;
74908;SDS011;63468;52.058;4.824;2023-03-11T15:23:37;12.85;;;11.63;;
74908;SDS011;63468;52.058;4.824;2023-03-11T15:26:03;12.52;;;11.32;;
74908;SDS011;63468;52.058;4.824;2023-03-11T15:28:31;12.75;;;11.55;;
74908;SDS011;63468;52.058;4.824;2023-03-11T15:33:55;10.93;;;9.93;;
74908;SDS011;63468;52.058;4.824;2023-03-11T15:36:36;11.77;;;10.45;;
74908;SDS011;63468;52.058;4.824;2023-03-11T15:39:10;10.85;;;9.68;;
74908;SDS011;63468;52.058;4.824;2023-03-11T15:41:41;11.43;;;9.65;;
74908;SDS011;63468;52.058;4.824;2023-03-11T15:44:19;10.88;;;9.88;;
74908;SDS011;63468;52.058;4.824;2023-03-11T15:46:47;9.85;;;8.95;;
74908;SDS011;63468;52.058;4.824;2023-03-11T15:49:12;12.85;;;10.07;;
74908;SDS011;63468;52.058;4.824;2023-03-11T15:51:37;12.27;;;10.07;;
74908;SDS011;63468;52.058;4.824;2023-03-11T15:54:03;10.27;;;9.38;;
74908;SDS011;63468;52.058;4.824;2023-03-11T15:56:28;12.27;;;10.38;;
74908;SDS011;63468;52.058;4.824;2023-03-11T15:58:54;11.15;;;10.15;;
74908;SDS011;63468;52.058;4.824;2023-03-11T16:01:20;15.77;;;10.35;;
74908;SDS011;63468;52.058;4.824;2023-03-11T16:03:52;11.02;;;9.93;;
74908;SDS011;63468;52.058;4.824;2023-03-11T16:06:17;15.25;;;9.15;;
74908;SDS011;63468;52.058;4.824;2023-03-11T16:08:43;10.52;;;9.52;;
74908;SDS011;63468;52.058;4.824;2023-03-11T16:11:09;11.02;;;9.48;;
74908;SDS011;63468;52.058;4.824;2023-03-11T16:13:38;11.60;;;8.90;;
74908;SDS011;63468;52.058;4.824;2023-03-11T16:16:03;10.30;;;8.95;;
74908;SDS011;63468;52.058;4.824;2023-03-11T16:18:29;11.40;;;8.35;;
74908;SDS011;63468;52.058;4.824;2023-03-11T16:20:54;9.60;;;8.80;;
74908;SDS011;63468;52.058;4.824;2023-03-11T16:23:21;12.02;;;9.20;;
74908;SDS011;63468;52.058;4.824;2023-03-11T16:25:48;8.68;;;7.88;;